Time;durP1;ratioP1;P1;durP2;ratioP2;P2;SDS_P1;SDS_P2;PMS_P1;PMS_P2;Temp;Humidity;BMP_temperature;BMP_pressure;BME280_temperature;BME280_humidity;BME280_pressure;Samples;Min_cycle;Max_cycle;Signal;HPM_P1;HPM_P2
2022/11/18 00:00:31;;;;;;;6.00;2.37;;;;;;;7.16;100.00;99392.97;5230691;28;20041;-72
2022/11/18 00:03:02;;;;;;;9.10;2.07;;;;;;;7.14;100.00;99401.69;5230361;28;20072;-72
2022/11/18 00:05:33;;;;;;;12.17;2.50;;;;;;;7.21;100.00;99398.69;5250727;28;20410;-73
2022/11/18 00:08:05;;;;;;;10.57;2.60;;;;;;;7.22;100.00;99405.56;5251704;28;20025;-73
2022/11/18 00:10:38;;;;;;;9.10;2.07;;;;;;;7.17;100.00;99400.66;5253721;28;20037;-73
2022/11/18 00:16:06;;;;;;;5.83;2.10;;;;;;;7.24;100.00;99401.88;5252915;28;20030;-74
2022/11/18 00:18:38;;;;;;;11.00;2.90;;;;;;;7.20;100.00;99392.66;5252538;28;20036;-74
2022/11/18 00:21:11;;;;;;;5.37;2.10;;;;;;;7.10;100.00;99404.63;5253141;28;20032;-73
2022/11/18 00:23:42;;;;;;;7.63;3.00;;;;;;;7.20;100.00;99407.44;5252808;28;20099;-73
2022/11/18 00:26:13;;;;;;;9.80;2.57;;;;;;;7.14;100.00;99416.47;5235262;28;20476;-74
2022/11/18 00:28:44;;;;;;;5.00;2.13;;;;;;;7.14;100.00;99411.28;5252111;28;20040;-74
2022/11/18 00:31:16;;;;;;;6.67;2.43;;;;;;;7.11;100.00;99417.53;5252209;28;20033;-74
2022/11/18 00:33:47;;;;;;;5.63;2.13;;;;;;;7.07;100.00;99426.47;5253042;28;20035;-74
2022/11/18 00:36:18;;;;;;;7.40;2.63;;;;;;;7.06;100.00;99414.41;5251627;28;20448;-74
2022/11/18 00:38:49;;;;;;;9.07;2.60;;;;;;;7.01;100.00;99417.34;5252483;28;20578;-74
2022/11/18 00:41:21;;;;;;;9.20;3.07;;;;;;;7.09;100.00;99432.44;5253597;28;20032;-73
2022/11/18 00:43:52;;;;;;;6.90;2.80;;;;;;;7.14;100.00;99426.91;5256903;28;20083;-74
2022/11/18 00:46:23;;;;;;;7.23;3.23;;;;;;;7.07;100.00;99434.28;5257980;28;20028;-74
2022/11/18 00:48:54;;;;;;;9.83;3.17;;;;;;;7.14;100.00;99439.91;5259915;28;20106;-74
2022/11/18 00:51:26;;;;;;;7.63;2.80;;;;;;;7.11;100.00;99447.94;5239262;28;20035;-74
2022/11/18 00:53:57;;;;;;;6.83;2.30;;;;;;;7.09;100.00;99444.59;5257192;28;20029;-73
2022/11/18 00:56:28;;;;;;;9.13;2.43;;;;;;;7.14;100.00;99440.75;5256802;28;20028;-74
2022/11/18 00:59:00;;;;;;;5.57;2.50;;;;;;;7.06;100.00;99450.03;5256477;28;20112;-74
2022/11/18 01:01:31;;;;;;;6.07;2.70;;;;;;;7.17;100.00;99455.34;5255466;28;20032;-73
2022/11/18 01:04:02;;;;;;;8.93;2.63;;;;;;;7.23;100.00;99460.13;5255949;28;20491;-74
2022/11/18 01:06:34;;;;;;;7.87;2.27;;;;;;;7.11;100.00;99460.97;5255607;28;20124;-74
2022/11/18 01:09:05;;;;;;;9.33;2.80;;;;;;;7.21;100.00;99463.78;5255720;28;20093;-73
2022/11/18 01:14:26;;;;;;;11.07;2.33;;;;;;;7.19;100.00;99479.50;5256853;28;20033;-74
2022/11/18 01:16:58;;;;;;;11.13;3.50;;;;;;;7.25;100.00;99475.66;5259770;28;20041;-73
2022/11/18 01:19:29;;;;;;;7.33;2.97;;;;;;;7.27;100.00;99479.00;5255810;28;20036;-74
2022/11/18 01:22:01;;;;;;;7.53;2.77;;;;;;;7.34;100.00;99484.59;5255945;28;20070;-74
2022/11/18 01:24:33;;;;;;;4.83;2.20;;;;;;;7.35;100.00;99476.69;5235999;28;20029;-74
2022/11/18 01:27:04;;;;;;;7.83;2.73;;;;;;;7.34;100.00;99484.59;5256299;28;20021;-73
2022/11/18 01:29:36;;;;;;;11.93;2.43;;;;;;;7.28;100.00;99472.81;5257601;28;20041;-74
2022/11/18 01:32:07;;;;;;;7.07;2.30;;;;;;;7.38;100.00;99488.69;5257022;28;20037;-74
2022/11/18 01:34:38;;;;;;;8.40;2.43;;;;;;;7.25;100.00;99486.91;5255306;28;20079;-74
2022/11/18 01:37:10;;;;;;;7.03;2.70;;;;;;;7.28;100.00;99490.25;5255264;28;20021;-74
2022/11/18 01:39:41;;;;;;;4.13;2.27;;;;;;;7.40;100.00;99505.00;5255793;28;20033;-74
2022/11/18 01:42:15;;;;;;;6.73;2.10;;;;;;;7.44;100.00;99506.47;5255864;28;20396;-73
2022/11/18 01:45:13;;;;;;;6.43;2.40;;;;;;;7.46;100.00;99508.97;5238069;28;20544;-74
2022/11/18 01:48:08;;;;;;;8.70;2.60;;;;;;;7.34;100.00;99502.84;5254630;28;20036;-73
2022/11/18 01:50:53;;;;;;;6.63;2.47;;;;;;;7.44;100.00;99510.84;5234115;28;20496;-73
2022/11/18 01:53:27;;;;;;;8.18;2.75;;;;;;;7.45;100.00;99510.75;5254000;28;20044;-73
2022/11/18 01:56:03;;;;;;;7.07;3.05;;;;;;;7.52;100.00;99515.56;5254982;28;20033;-74
2022/11/18 01:58:42;;;;;;;6.67;2.70;;;;;;;7.50;100.00;99516.47;5237431;28;20682;-74
2022/11/18 02:01:14;;;;;;;6.83;2.70;;;;;;;7.52;100.00;99518.16;5236891;28;20617;-74
2022/11/18 02:03:47;;;;;;;6.47;3.20;;;;;;;7.37;100.00;99505.22;5255259;28;20056;-74
2022/11/18 02:06:19;;;;;;;7.40;2.27;;;;;;;7.48;100.00;99520.13;5255056;28;20483;-72
2022/11/18 02:08:50;;;;;;;5.53;2.20;;;;;;;7.46;100.00;99524.59;5255161;28;20063;-73
2022/11/18 02:14:12;;;;;;;6.10;2.23;;;;;;;7.57;100.00;99531.69;5255163;28;20440;-73
2022/11/18 02:16:55;;;;;;;7.83;2.53;;;;;;;7.58;100.00;99533.34;5236754;28;20029;-73
2022/11/18 02:19:36;;;;;;;7.07;2.57;;;;;;;7.63;100.00;99526.06;5236696;28;20140;-73
2022/11/18 02:22:22;;;;;;;6.27;2.13;;;;;;;7.60;100.00;99540.16;5236807;28;20033;-73
2022/11/18 02:25:19;;;;;;;6.07;1.90;;;;;;;7.66;100.00;99541.50;5255074;28;20669;-73
2022/11/18 02:28:12;;;;;;;8.47;2.53;;;;;;;7.67;100.00;99550.13;5248818;28;20032;-73
2022/11/18 02:31:05;;;;;;;4.17;1.90;;;;;;;7.68;100.00;99544.00;5254485;28;20434;-73
2022/11/18 02:33:46;;;;;;;6.50;2.00;;;;;;;7.72;100.00;99551.50;5255260;28;20492;-73
2022/11/18 02:36:27;;;;;;;5.27;1.90;;;;;;;7.69;100.00;99549.09;5255656;28;20025;-73
2022/11/18 02:39:06;;;;;;;7.47;2.10;;;;;;;7.70;100.00;99547.31;5257523;28;20495;-73
2022/11/18 02:41:40;;;;;;;5.87;1.97;;;;;;;7.72;100.00;99561.91;5236204;28;20202;-73
2022/11/18 02:44:16;;;;;;;10.80;2.27;;;;;;;7.73;100.00;99558.38;5254782;28;20106;-73
2022/11/18 02:46:54;;;;;;;10.13;2.60;;;;;;;7.75;100.00;99560.88;5252783;28;20025;-73
2022/11/18 02:49:34;;;;;;;7.63;2.50;;;;;;;7.78;100.00;99570.25;5257895;28;20055;-73
2022/11/18 02:52:09;;;;;;;12.03;2.97;;;;;;;7.79;100.00;99569.31;5236777;28;20029;-73
2022/11/18 02:54:44;;;;;;;4.67;2.27;;;;;;;7.78;100.00;99573.72;5253738;28;20041;-73
2022/11/18 02:57:18;;;;;;;7.20;2.37;;;;;;;7.78;100.00;99576.31;5253579;28;20078;-73
2022/11/18 02:59:50;;;;;;;6.93;2.53;;;;;;;7.81;100.00;99575.25;5253307;28;20234;-72
2022/11/18 03:02:21;;;;;;;5.90;2.50;;;;;;;7.73;100.00;99568.78;5253027;28;20096;-73
2022/11/18 03:04:57;;;;;;;11.97;2.43;;;;;;;7.83;100.00;99578.59;5235134;28;20041;-73
2022/11/18 03:07:33;;;;;;;9.17;2.23;;;;;;;7.77;100.00;99569.41;5254482;28;20500;-73
2022/11/18 03:10:05;;;;;;;9.13;2.80;;;;;;;7.81;100.00;99581.31;5253312;28;20850;-73
2022/11/18 03:12:47;;;;;;;8.37;2.20;;;;;;;7.86;100.00;99575.78;5254190;28;20033;-73
2022/11/18 03:15:42;;;;;;;7.63;2.43;;;;;;;7.87;100.00;99587.88;5254067;28;20017;-73
2022/11/18 03:18:41;;;;;;;8.38;2.50;;;;;;;7.86;100.00;99588.81;5235432;28;20021;-73
2022/11/18 03:21:34;;;;;;;6.83;2.70;;;;;;;7.85;100.00;99587.16;5250517;28;20636;-73
2022/11/18 03:24:22;;;;;;;9.93;2.57;;;;;;;7.89;100.00;99598.19;5253304;28;20726;-73
2022/11/18 03:27:06;;;;;;;8.37;2.60;;;;;;;7.83;100.00;99591.63;5253453;28;20190;-73
2022/11/18 03:29:45;;;;;;;5.70;2.27;;;;;;;7.78;100.00;99591.94;5253904;28;20049;-73
2022/11/18 03:32:25;;;;;;;8.03;2.63;;;;;;;7.83;100.00;99594.22;5251750;28;20597;-73
2022/11/18 03:35:02;;;;;;;4.23;2.10;;;;;;;7.86;100.00;99601.84;5252828;28;20033;-73
2022/11/18 03:37:34;;;;;;;8.97;3.43;;;;;;;7.81;100.00;99609.97;5252562;28;20093;-73
2022/11/18 03:40:12;;;;;;;8.17;2.43;;;;;;;7.83;100.00;99600.28;5253129;28;20041;-73
2022/11/18 03:42:52;;;;;;;6.30;2.50;;;;;;;7.82;100.00;99609.03;5257421;28;20043;-73
2022/11/18 03:45:44;;;;;;;6.27;2.40;;;;;;;7.89;100.00;99619.88;5252132;28;20028;-73
2022/11/18 03:48:24;;;;;;;9.07;2.53;;;;;;;7.86;100.00;99625.28;5252667;28;20037;-73
2022/11/18 03:51:00;;;;;;;5.30;2.50;;;;;;;7.81;100.00;99616.97;5252594;28;20615;-73
2022/11/18 03:53:35;;;;;;;5.57;2.17;;;;;;;7.86;100.00;99623.53;5253389;28;20040;-73
2022/11/18 03:56:14;;;;;;;8.90;2.70;;;;;;;7.90;100.00;99634.59;5252846;28;20029;-73
2022/11/18 03:59:00;;;;;;;5.80;2.60;;;;;;;7.92;100.00;99632.72;5252895;28;20083;-73
2022/11/18 04:02:01;;;;;;;9.07;2.97;;;;;;;7.89;100.00;99638.13;5252313;28;20033;-73
2022/11/18 04:04:32;;;;;;;7.67;2.80;;;;;;;7.87;100.00;99626.97;5252518;28;20049;-73
2022/11/18 04:07:21;;;;;;;8.20;2.70;;;;;;;7.89;100.00;99645.94;5252746;28;20055;-73
2022/11/18 04:10:07;;;;;;;5.77;3.40;;;;;;;7.89;100.00;99648.53;5252435;28;20032;-73
2022/11/18 04:12:44;;;;;;;9.63;3.67;;;;;;;7.83;100.00;99657.63;5252940;28;20465;-73
2022/11/18 04:15:16;;;;;;;6.93;2.47;;;;;;;7.85;100.00;99660.13;5252981;28;20033;-73
2022/11/18 04:17:47;;;;;;;9.43;3.20;;;;;;;7.84;100.00;99661.06;5254966;28;20044;-73
2022/11/18 04:20:20;;;;;;;10.03;3.10;;;;;;;7.87;100.00;99664.28;5256855;28;20060;-73
2022/11/18 04:22:52;;;;;;;7.93;3.10;;;;;;;7.84;100.00;99668.88;5257140;28;20040;-72
2022/11/18 04:25:23;;;;;;;9.07;3.33;;;;;;;7.78;100.00;99666.69;5257102;28;20025;-72
2022/11/18 04:27:54;;;;;;;10.10;4.00;;;;;;;7.72;100.00;99668.78;5257161;28;20376;-72
2022/11/18 04:30:26;;;;;;;6.70;3.53;;;;;;;7.70;100.00;99667.19;5255438;28;20407;-72
2022/11/18 04:32:57;;;;;;;6.40;3.67;;;;;;;7.67;100.00;99672.63;5256778;28;20423;-72
2022/11/18 04:35:28;;;;;;;9.63;3.13;;;;;;;7.64;100.00;99676.28;5256843;28;20043;-72
2022/11/18 04:38:00;;;;;;;9.90;3.87;;;;;;;7.61;100.00;99684.31;5256128;28;20119;-72
2022/11/18 04:40:31;;;;;;;9.73;3.70;;;;;;;7.60;100.00;99687.81;5256796;28;20055;-72
2022/11/18 04:43:02;;;;;;;7.53;3.50;;;;;;;7.60;100.00;99683.47;5256060;28;20066;-73
2022/11/18 04:45:33;;;;;;;10.13;3.57;;;;;;;7.47;100.00;99691.25;5255719;28;20067;-72
2022/11/18 04:48:05;;;;;;;8.10;3.53;;;;;;;7.45;100.00;99685.28;5256224;28;20048;-73
2022/11/18 04:50:36;;;;;;;8.30;3.27;;;;;;;7.37;100.00;99700.59;5256109;28;20047;-72
2022/11/18 04:53:07;;;;;;;9.07;3.63;;;;;;;7.40;100.00;99697.78;5256693;28;20060;-73
2022/11/18 04:55:39;;;;;;;10.73;3.70;;;;;;;7.42;100.00;99695.91;5256202;28;20021;-73
2022/11/18 04:58:10;;;;;;;8.80;4.00;;;;;;;7.37;100.00;99698.81;5256616;28;20048;-72
2022/11/18 05:00:41;;;;;;;8.37;3.50;;;;;;;7.26;100.00;99686.50;5255722;28;20074;-73
2022/11/18 05:03:13;;;;;;;5.50;3.33;;;;;;;7.29;100.00;99703.69;5237734;28;20033;-72
2022/11/18 05:05:45;;;;;;;9.50;4.10;;;;;;;7.37;100.00;99722.28;5255023;28;20102;-72
2022/11/18 05:08:16;;;;;;;10.37;4.43;;;;;;;7.26;100.00;99712.53;5255830;28;20029;-72
2022/11/18 05:10:47;;;;;;;10.87;4.63;;;;;;;7.25;100.00;99720.44;5256174;28;20500;-73
2022/11/18 05:13:18;;;;;;;13.27;4.30;;;;;;;7.31;100.00;99722.69;5256149;28;20607;-73
2022/11/18 05:15:50;;;;;;;9.73;3.87;;;;;;;7.20;100.00;99715.53;5255095;28;20032;-72
2022/11/18 05:18:21;;;;;;;10.20;3.73;;;;;;;7.19;100.00;99723.47;5255812;28;20029;-72
2022/11/18 05:20:52;;;;;;;10.80;3.97;;;;;;;7.26;100.00;99724.75;5256050;28;20037;-72
2022/11/18 05:23:23;;;;;;;13.83;4.57;;;;;;;7.26;100.00;99733.38;5255323;28;20103;-73
2022/11/18 05:25:55;;;;;;;14.87;3.80;;;;;;;7.12;100.00;99730.81;5256451;28;20037;-73
2022/11/18 05:28:26;;;;;;;10.03;4.23;;;;;;;7.11;100.00;99719.56;5255124;28;20733;-72
2022/11/18 05:30:57;;;;;;;7.23;4.03;;;;;;;7.17;100.00;99738.34;5255206;28;20037;-72
2022/11/18 05:33:29;;;;;;;9.40;3.97;;;;;;;7.14;100.00;99744.56;5238600;28;20784;-72
2022/11/18 05:36:05;;;;;;;8.90;3.70;;;;;;;7.16;100.00;99740.09;5255406;28;20091;-72
2022/11/18 05:38:37;;;;;;;10.47;4.40;;;;;;;7.13;100.00;99737.69;5255422;28;20037;-72
2022/11/18 05:41:09;;;;;;;11.83;4.50;;;;;;;7.19;100.00;99747.72;5237174;28;20028;-72
2022/11/18 05:43:40;;;;;;;12.00;4.97;;;;;;;7.09;100.00;99751.81;5255526;28;20504;-73
2022/11/18 05:46:11;;;;;;;7.97;4.70;;;;;;;7.00;100.00;99748.88;5253989;28;20162;-72
2022/11/18 05:48:42;;;;;;;8.23;4.27;;;;;;;7.07;100.00;99754.53;5255552;28;20040;-72
2022/11/18 05:51:14;;;;;;;11.63;4.07;;;;;;;7.09;100.00;99764.84;5237769;28;20048;-72
2022/11/18 05:53:48;;;;;;;13.80;3.93;;;;;;;6.99;100.00;99762.84;5255473;28;20032;-72
2022/11/18 05:56:34;;;;;;;6.18;3.72;;;;;;;7.05;100.00;99766.81;5255623;28;20124;-72
2022/11/18 05:59:06;;;;;;;8.13;4.20;;;;;;;7.08;100.00;99773.59;5222810;28;20036;-72
2022/11/18 06:01:55;;;;;;;11.27;4.77;;;;;;;6.99;100.00;99770.66;5254110;28;20037;-72
2022/11/18 06:04:32;;;;;;;8.67;4.20;;;;;;;6.99;100.00;99767.19;5254670;28;20136;-72
2022/11/18 06:07:12;;;;;;;8.13;3.87;;;;;;;6.99;100.00;99768.03;5254052;28;20071;-72
2022/11/18 06:09:47;;;;;;;8.13;3.87;;;;;;;7.01;100.00;99775.75;5237246;28;20025;-72
2022/11/18 06:12:25;;;;;;;12.52;5.15;;;;;;;6.98;100.00;99776.75;5254389;28;20036;-72
2022/11/18 06:15:02;;;;;;;6.97;3.60;;;;;;;6.98;100.00;99784.56;5254379;28;20044;-72
2022/11/18 06:17:40;;;;;;;11.50;5.23;;;;;;;6.96;100.00;99788.22;5242744;28;20041;-72
2022/11/18 06:20:12;;;;;;;11.17;5.53;;;;;;;6.93;100.00;99788.41;5254514;28;20025;-72
2022/11/18 06:22:43;;;;;;;13.63;5.20;;;;;;;6.97;100.00;99795.94;5253588;28;20476;-72
2022/11/18 06:25:15;;;;;;;7.47;4.20;;;;;;;6.92;100.00;99808.41;5236901;28;20031;-72
2022/11/18 06:27:49;;;;;;;8.60;4.13;;;;;;;6.90;100.00;99813.69;5255080;28;20403;-72
2022/11/18 06:30:20;;;;;;;8.63;3.88;;;;;;;6.77;100.00;99813.59;5252576;28;20045;-72
2022/11/18 06:32:51;;;;;;;10.00;4.47;;;;;;;6.81;100.00;99822.06;5254784;28;20094;-72
2022/11/18 06:35:23;;;;;;;9.57;4.07;;;;;;;6.88;100.00;99822.50;5254425;28;20543;-72
2022/11/18 06:37:54;;;;;;;9.40;4.40;;;;;;;6.81;100.00;99823.84;5254916;28;20033;-72
2022/11/18 06:40:25;;;;;;;11.30;4.90;;;;;;;6.73;100.00;99822.53;5253759;28;20021;-71
2022/11/18 06:46:54;;;;;;;9.37;4.87;;;;;;;6.78;100.00;99838.72;5253660;28;20484;-72
2022/11/18 06:48:37;;;;;;;8.83;4.67;;;;;;;6.78;100.00;99843.06;5253849;28;20132;-72
2022/11/18 06:51:09;;;;;;;8.10;4.57;;;;;;;6.80;100.00;99845.56;5253921;28;20113;-72
2022/11/18 06:53:40;;;;;;;9.93;5.07;;;;;;;6.87;100.00;99852.09;5254719;28;20025;-72
2022/11/18 06:56:14;;;;;;;6.67;4.73;;;;;;;6.84;100.00;99854.88;5253806;28;20029;-72
2022/11/18 06:58:46;;;;;;;10.87;5.30;;;;;;;6.84;100.00;99862.69;5254183;28;20045;-73
2022/11/18 07:01:20;;;;;;;13.40;5.27;;;;;;;6.80;100.00;99861.19;5253045;28;20017;-72
2022/11/18 07:03:52;;;;;;;9.45;5.15;;;;;;;6.81;100.00;99862.88;5253494;28;20029;-72
2022/11/18 07:06:26;;;;;;;10.47;4.53;;;;;;;6.85;100.00;99866.94;5253573;28;20045;-72
2022/11/18 07:09:04;;;;;;;9.18;4.90;;;;;;;6.81;100.00;99871.50;5253966;28;20029;-72
2022/11/18 07:11:37;;;;;;;10.93;4.97;;;;;;;6.79;100.00;99870.75;5253651;28;20036;-72
2022/11/18 07:14:08;;;;;;;12.43;5.03;;;;;;;6.82;100.00;99875.81;5253245;28;20029;-72
2022/11/18 07:16:40;;;;;;;10.00;5.63;;;;;;;6.77;100.00;99873.44;5251980;28;20044;-72
2022/11/18 07:19:12;;;;;;;10.67;5.27;;;;;;;6.76;100.00;99884.81;5252988;28;20706;-73
2022/11/18 07:21:43;;;;;;;10.20;5.00;;;;;;;6.75;100.00;99888.34;5253482;28;20057;-72
2022/11/18 07:24:15;;;;;;;7.90;4.40;;;;;;;6.75;100.00;99896.16;5252812;28;20060;-72
2022/11/18 07:26:46;;;;;;;9.90;5.00;;;;;;;6.71;100.00;99889.44;5252691;28;20428;-72
2022/11/18 07:29:18;;;;;;;11.50;4.67;;;;;;;6.61;100.00;99886.56;5258041;28;20492;-72
2022/11/18 07:31:49;;;;;;;11.93;5.17;;;;;;;6.59;100.00;99892.75;5252598;28;20040;-72
2022/11/18 07:34:20;;;;;;;7.87;4.47;;;;;;;6.68;100.00;99905.25;5249306;28;20033;-72
2022/11/18 07:36:51;;;;;;;10.80;5.00;;;;;;;6.64;100.00;99908.94;5252779;28;20040;-72
2022/11/18 07:39:23;;;;;;;7.83;5.10;;;;;;;6.68;100.00;99910.44;5252154;28;20028;-72
2022/11/18 07:41:54;;;;;;;8.23;4.60;;;;;;;6.62;100.00;99914.22;5253022;28;20021;-73
2022/11/18 07:44:25;;;;;;;10.90;4.47;;;;;;;6.66;100.00;99920.09;5251231;28;20029;-72
2022/11/18 07:46:56;;;;;;;8.53;4.87;;;;;;;6.59;100.00;99921.38;5251497;28;20040;-72
2022/11/18 07:49:28;;;;;;;13.90;4.80;;;;;;;6.60;100.00;99918.69;5253474;28;20035;-72
2022/11/18 07:51:59;;;;;;;9.37;4.27;;;;;;;6.60;100.00;99926.50;5253061;28;20041;-72
2022/11/18 07:54:30;;;;;;;10.07;6.13;;;;;;;6.63;100.00;99930.69;5253016;28;20028;-72
2022/11/18 07:57:01;;;;;;;13.17;5.23;;;;;;;6.64;100.00;99929.75;5243138;28;20079;-71
2022/11/18 07:59:33;;;;;;;9.67;4.43;;;;;;;6.67;100.00;99936.56;5235879;28;20386;-72
2022/11/18 08:02:05;;;;;;;10.10;5.00;;;;;;;6.61;100.00;99936.00;5232747;28;20021;-71
2022/11/18 08:04:36;;;;;;;10.07;5.57;;;;;;;6.75;100.00;99937.78;5253020;28;20047;-71
2022/11/18 08:07:09;;;;;;;8.17;4.90;;;;;;;6.76;100.00;99949.88;5222561;28;20045;-73
2022/11/18 08:09:40;;;;;;;10.27;5.57;;;;;;;6.80;100.00;99953.13;5244849;28;20071;-73
2022/11/18 08:12:11;;;;;;;10.07;5.20;;;;;;;6.71;100.00;99953.66;5234825;28;20594;-71
2022/11/18 08:14:42;;;;;;;7.80;5.03;;;;;;;6.82;100.00;99961.69;5246805;28;20371;-72
2022/11/18 08:17:14;;;;;;;14.70;5.73;;;;;;;6.75;100.00;99950.81;5230987;28;20689;-72
2022/11/18 08:19:45;;;;;;;9.00;4.97;;;;;;;6.80;100.00;99960.94;5244666;28;20068;-72
2022/11/18 08:22:19;;;;;;;10.00;5.23;;;;;;;6.73;100.00;99965.66;5246590;28;20036;-71
2022/11/18 08:24:50;;;;;;;8.23;5.32;;;;;;;6.81;100.00;99974.78;5249778;28;20341;-72
2022/11/18 08:27:21;;;;;;;11.10;5.40;;;;;;;6.83;100.00;99976.38;5250201;28;20029;-72
2022/11/18 08:29:53;;;;;;;11.57;5.23;;;;;;;6.83;100.00;99975.53;5246323;28;20053;-72
2022/11/18 08:32:24;;;;;;;11.00;4.93;;;;;;;6.85;100.00;99978.88;5251362;28;20035;-72
2022/11/18 08:34:55;;;;;;;15.00;5.27;;;;;;;6.88;100.00;99978.69;5250906;28;20016;-72
2022/11/18 08:37:27;;;;;;;10.23;5.03;;;;;;;6.80;100.00;99978.31;5231342;28;20076;-72
2022/11/18 08:39:58;;;;;;;10.20;5.73;;;;;;;6.92;100.00;99988.00;5249090;28;20047;-72
2022/11/18 08:42:29;;;;;;;11.63;5.63;;;;;;;7.04;100.00;99980.41;5246978;28;20033;-74
2022/11/18 08:45:00;;;;;;;9.80;5.70;;;;;;;7.14;100.00;99984.13;5249607;28;20021;-73
2022/11/18 08:47:32;;;;;;;9.03;5.70;;;;;;;7.05;100.00;99976.88;5250243;28;20033;-71
2022/11/18 08:50:05;;;;;;;9.50;5.10;;;;;;;7.17;100.00;99983.97;5250124;28;20500;-71
2022/11/18 08:52:37;;;;;;;12.98;5.72;;;;;;;7.23;100.00;99988.81;5245700;28;20067;-70
2022/11/18 08:55:08;;;;;;;12.80;5.43;;;;;;;7.31;100.00;99988.34;5231566;28;20111;-70
2022/11/18 08:57:40;;;;;;;11.07;5.93;;;;;;;7.41;100.00;99988.63;5250024;28;20083;-71
2022/11/18 09:00:12;;;;;;;10.93;5.73;;;;;;;7.47;100.00;99984.81;5248240;28;20028;-71
2022/11/18 09:02:43;;;;;;;10.13;5.50;;;;;;;7.54;100.00;99995.72;5249787;28;20383;-72
2022/11/18 09:05:14;;;;;;;9.07;5.20;;;;;;;7.62;100.00;100001.28;5253814;28;20427;-71
2022/11/18 09:07:46;;;;;;;12.13;5.93;;;;;;;7.65;100.00;99998.47;5253506;28;20349;-71
2022/11/18 09:10:17;;;;;;;11.80;5.57;;;;;;;7.78;100.00;100002.94;5235856;28;20599;-72
2022/11/18 09:12:48;;;;;;;10.00;5.27;;;;;;;7.75;100.00;99994.38;5250902;28;20043;-72
2022/11/18 09:15:19;;;;;;;11.80;4.27;;;;;;;7.94;100.00;100001.06;5253061;28;20033;-73
2022/11/18 09:17:51;;;;;;;8.83;5.20;;;;;;;8.09;100.00;100001.03;5253875;28;20033;-71
2022/11/18 09:20:23;;;;;;;11.77;4.27;;;;;;;8.15;100.00;99999.81;5256365;28;20045;-72
2022/11/18 09:22:54;;;;;;;13.80;5.80;;;;;;;8.12;100.00;99987.78;5251682;28;20039;-72
2022/11/18 09:25:25;;;;;;;13.17;4.87;;;;;;;8.28;100.00;100012.91;5253341;28;20040;-71
2022/11/18 09:27:57;;;;;;;10.90;3.77;;;;;;;8.47;100.00;100008.19;5251226;28;20438;-71
2022/11/18 09:30:28;;;;;;;7.97;3.57;;;;;;;9.06;100.00;100019.22;5241689;28;20124;-71
2022/11/18 09:33:00;;;;;;;10.37;5.20;;;;;;;9.77;100.00;100027.56;5251868;28;20078;-71
2022/11/18 09:35:32;;;;;;;11.17;4.10;;;;;;;10.50;100.00;100029.47;5254421;28;20067;-72
2022/11/18 09:38:04;;;;;;;8.67;3.50;;;;;;;10.56;100.00;100031.63;5254302;28;20043;-72
2022/11/18 09:40:54;;;;;;;7.37;3.20;;;;;;;10.81;100.00;100040.31;5252627;28;20567;-72
2022/11/18 09:44:27;;;;;;;10.83;4.03;;;;;;;10.70;100.00;100033.25;5253153;28;20052;-72
2022/11/18 09:47:14;;;;;;;11.30;3.33;;;;;;;10.37;100.00;100045.19;5147911;29;20134;-72
2022/11/18 09:49:47;;;;;;;7.23;3.33;;;;;;;10.12;100.00;100054.81;5149560;29;20039;-72
2022/11/18 09:52:30;;;;;;;9.00;4.00;;;;;;;10.02;100.00;100065.06;5215574;28;20107;-71
2022/11/18 09:55:16;;;;;;;9.33;3.07;;;;;;;10.01;100.00;100064.25;5253997;28;20028;-71
2022/11/18 09:57:51;;;;;;;11.63;3.67;;;;;;;9.73;100.00;100060.94;5246814;28;20029;-70
2022/11/18 10:00:25;;;;;;;8.23;3.53;;;;;;;9.78;100.00;100076.31;5249982;28;20483;-71
2022/11/18 10:03:00;;;;;;;6.82;3.30;;;;;;;9.70;100.00;100081.22;5251673;28;20396;-71
2022/11/18 10:05:40;;;;;;;12.20;4.07;;;;;;;9.63;100.00;100086.06;5253588;28;20052;-71
2022/11/18 10:08:31;;;;;;;14.93;3.23;;;;;;;9.66;100.00;100080.59;5253018;28;20421;-71
2022/11/18 10:11:15;;;;;;;10.73;3.23;;;;;;;9.58;100.00;100078.53;5246099;28;20033;-71
2022/11/18 10:14:31;;;;;;;11.73;2.83;;;;;;;9.63;100.00;100081.66;5253028;28;20067;-72
2022/11/18 10:17:22;;;;;;;14.52;3.92;;;;;;;9.62;100.00;100086.97;5250049;28;20100;-72
2022/11/18 10:20:30;;;;;;;9.57;3.10;;;;;;;9.61;100.00;100080.09;5254126;28;20021;-72
2022/11/18 10:23:14;;;;;;;13.20;3.20;;;;;;;9.70;100.00;100079.47;5251584;28;20463;-71
2022/11/18 10:25:45;;;;;;;4.97;2.30;;;;;;;9.73;100.00;100088.88;5253700;28;20703;-72
2022/11/18 10:28:28;;;;;;;9.23;2.77;;;;;;;9.76;100.00;100096.50;5253900;28;20025;-72
2022/11/18 10:31:05;;;;;;;12.23;3.70;;;;;;;9.61;100.00;100087.94;5250236;28;20052;-72
2022/11/18 10:33:37;;;;;;;7.87;2.50;;;;;;;9.64;100.00;100096.41;5251417;28;20028;-72
2022/11/18 10:36:17;;;;;;;10.23;3.33;;;;;;;9.64;100.00;100099.00;5252946;28;20023;-73
2022/11/18 10:39:04;;;;;;;8.77;2.80;;;;;;;9.59;100.00;100093.25;5252906;28;20028;-73
2022/11/18 10:41:44;;;;;;;9.90;2.37;;;;;;;9.54;100.00;100082.28;5243137;28;20039;-71
2022/11/18 10:44:27;;;;;;;10.20;3.43;;;;;;;9.78;100.00;100105.06;5249992;28;20016;-73
2022/11/18 10:47:27;;;;;;;6.33;2.27;;;;;;;9.68;100.00;100097.88;5252756;28;20057;-72
2022/11/18 10:50:02;;;;;;;9.60;2.03;;;;;;;9.63;100.00;100107.81;5246791;28;20037;-71
2022/11/18 10:52:50;;;;;;;8.85;2.67;;;;;;;9.70;100.00;100112.59;5249761;28;20059;-72
2022/11/18 10:55:24;;;;;;;7.47;2.37;;;;;;;9.60;100.00;100108.00;5252440;28;20017;-71
2022/11/18 10:58:15;;;;;;;9.77;3.30;;;;;;;9.49;100.00;100093.06;5253340;28;20021;-71
2022/11/18 11:00:48;;;;;;;7.83;2.37;;;;;;;9.55;100.00;100115.31;5249418;28;20539;-72
2022/11/18 11:03:21;;;;;;;11.95;4.50;;;;;;;9.62;100.00;100115.72;5252158;28;20028;-72
2022/11/18 11:06:11;;;;;;;9.80;3.03;;;;;;;9.67;100.00;100117.09;5252338;28;20045;-71
2022/11/18 11:08:58;;;;;;;9.00;3.00;;;;;;;9.67;100.00;100119.72;5252434;28;20108;-72
2022/11/18 11:11:36;;;;;;;12.53;3.80;;;;;;;9.58;100.00;100120.34;5232239;28;20017;-72
2022/11/18 11:14:45;;;;;;;12.63;3.10;;;;;;;9.73;100.00;100115.84;5244800;28;20361;-72
2022/11/18 11:20:51;;;;;;;10.50;2.93;;;;;;;9.73;100.00;100117.63;5243704;28;20036;-72
2022/11/18 11:23:22;;;;;;;8.60;2.80;;;;;;;9.83;100.00;100131.75;5251494;28;20037;-71
2022/11/18 11:26:02;;;;;;;10.77;2.83;;;;;;;9.83;100.00;100130.94;5250634;28;20025;-71
2022/11/18 11:28:49;;;;;;;9.60;2.87;;;;;;;9.85;100.00;100123.78;5252258;28;20060;-71
2022/11/18 11:31:24;;;;;;;10.37;3.37;;;;;;;9.85;100.00;100132.47;5249348;28;20032;-73
2022/11/18 11:34:22;;;;;;;11.98;2.80;;;;;;;9.89;100.00;100126.13;5251390;28;20055;-72
2022/11/18 11:37:19;;;;;;;9.00;2.57;;;;;;;9.87;100.00;100125.38;5250992;28;20056;-71
2022/11/18 11:40:16;;;;;;;9.20;2.50;;;;;;;9.99;100.00;100138.53;5250461;28;20434;-71
2022/11/18 11:42:57;;;;;;;14.73;3.97;;;;;;;9.91;100.00;100136.47;5230925;28;20174;-70
2022/11/18 11:45:41;;;;;;;9.10;3.10;;;;;;;9.89;100.00;100133.97;5250516;28;20530;-71
2022/11/18 11:48:39;;;;;;;8.27;2.75;;;;;;;9.93;100.00;100138.03;5250739;28;20036;-72
2022/11/18 11:51:18;;;;;;;9.60;2.90;;;;;;;9.92;100.00;100138.97;5249293;28;20127;-72
2022/11/18 11:54:01;;;;;;;10.20;2.97;;;;;;;9.86;100.00;100134.16;5252005;28;20760;-72
2022/11/18 11:56:57;;;;;;;7.00;3.10;;;;;;;9.93;100.00;100143.25;5252094;28;20025;-72
2022/11/18 11:59:50;;;;;;;9.70;2.80;;;;;;;9.98;100.00;100145.56;5251572;28;20028;-71
2022/11/18 12:02:42;;;;;;;10.83;2.93;;;;;;;10.02;100.00;100148.78;5249508;28;20530;-74
2022/11/18 12:05:16;;;;;;;6.13;2.53;;;;;;;9.98;100.00;100152.56;5236911;28;20808;-72
2022/11/18 12:07:56;;;;;;;11.77;3.30;;;;;;;9.95;100.00;100145.75;5252106;28;20037;-71
2022/11/18 12:11:01;;;;;;;8.23;2.63;;;;;;;10.07;100.00;100149.31;5248262;28;20056;-71
2022/11/18 12:13:53;;;;;;;8.35;2.65;;;;;;;10.11;100.00;100145.53;5247460;28;20057;-71
2022/11/18 12:17:00;;;;;;;6.40;2.60;;;;;;;10.17;100.00;100141.69;5250149;28;20530;-71
2022/11/18 12:19:37;;;;;;;7.43;2.83;;;;;;;10.27;100.00;100144.47;5250305;28;20037;-70
2022/11/18 12:22:08;;;;;;;12.30;3.07;;;;;;;10.28;100.00;100136.50;5248785;28;20569;-71
2022/11/18 12:24:43;;;;;;;11.37;3.50;;;;;;;10.44;100.00;100142.47;5250905;28;20061;-71
2022/11/18 12:27:23;;;;;;;;;;;;;;;10.60;100.00;100142.22;5251320;28;20033;-71